createdAt,value
2023-02-05T00:00:00.558Z,12.97
2023-02-05T00:02:33.091Z,12.90
2023-02-05T00:05:02.907Z,12.00
2023-02-05T00:07:32.662Z,12.13
2023-02-05T00:10:02.696Z,12.03
2023-02-05T00:12:32.485Z,12.10
2023-02-05T00:15:02.418Z,12.77
2023-02-05T00:17:35.311Z,11.77
2023-02-05T00:20:05.100Z,12.10
2023-02-05T00:22:35.207Z,11.43
2023-02-05T00:25:05.037Z,12.20
2023-02-05T00:27:35.954Z,10.70
2023-02-05T00:30:05.819Z,10.43
2023-02-05T00:32:45.817Z,10.17
2023-02-05T00:36:18.674Z,10.50
2023-02-05T00:38:48.964Z,9.47
2023-02-05T00:41:19.680Z,9.13
2023-02-05T00:43:49.720Z,10.07
2023-02-05T00:46:20.163Z,10.03
2023-02-05T00:48:52.603Z,9.50
2023-02-05T00:51:22.695Z,10.50
2023-02-05T00:53:52.954Z,9.90
2023-02-05T00:56:23.024Z,9.77
2023-02-05T00:58:52.886Z,9.40
2023-02-05T01:01:22.752Z,8.83
2023-02-05T01:03:55.198Z,9.83
2023-02-05T01:06:25.148Z,8.90
2023-02-05T01:08:55.160Z,8.87
2023-02-05T01:11:24.989Z,9.87
2023-02-05T01:13:54.782Z,8.90
2023-02-05T01:16:24.697Z,7.83
2023-02-05T01:18:57.777Z,7.63
2023-02-05T01:21:27.847Z,8.03
2023-02-05T01:23:58.080Z,7.77
2023-02-05T01:26:27.858Z,8.20
2023-02-05T01:28:57.718Z,7.83
2023-02-05T01:31:29.694Z,7.13
2023-02-05T01:34:02.413Z,7.60
2023-02-05T01:36:32.306Z,9.10
2023-02-05T01:39:02.108Z,7.83
2023-02-05T01:41:31.903Z,8.43
2023-02-05T01:44:22.578Z,8.73
2023-02-05T01:46:53.212Z,8.07
2023-02-05T01:49:29.327Z,8.67
2023-02-05T01:52:03.117Z,8.33
2023-02-05T01:54:36.982Z,8.67
2023-02-05T01:57:10.847Z,8.93
2023-02-05T01:59:44.045Z,8.63
2023-02-05T02:02:14.231Z,7.80
2023-02-05T02:04:48.793Z,8.47
2023-02-05T02:07:22.723Z,7.90
2023-02-05T02:09:53.139Z,8.30
2023-02-05T02:12:29.769Z,9.20
2023-02-05T02:15:04.268Z,8.70
2023-02-05T02:17:39.308Z,8.80
2023-02-05T02:20:15.629Z,8.37
2023-02-05T02:22:59.269Z,8.50
2023-02-05T02:26:07.254Z,8.07
2023-02-05T02:28:48.268Z,7.57
2023-02-05T02:31:22.630Z,9.37
2023-02-05T02:33:57.257Z,9.10
2023-02-05T02:36:33.222Z,8.50
2023-02-05T02:39:09.911Z,9.13
2023-02-05T02:41:47.456Z,8.87
2023-02-05T02:44:26.649Z,8.80
2023-02-05T02:47:00.193Z,7.97
2023-02-05T02:49:35.806Z,8.77
2023-02-05T02:52:10.110Z,8.97
2023-02-05T02:54:44.531Z,8.97
2023-02-05T02:57:17.811Z,8.70
2023-02-05T02:59:53.039Z,8.90
2023-02-05T03:02:24.559Z,9.17
2023-02-05T03:05:01.577Z,9.07
2023-02-05T03:07:36.765Z,8.53
2023-02-05T03:10:15.690Z,8.87
2023-02-05T03:12:46.063Z,9.40
2023-02-05T03:15:19.028Z,9.90
2023-02-05T03:17:49.342Z,9.50
2023-02-05T03:20:25.349Z,9.33
2023-02-05T03:22:55.562Z,9.40
2023-02-05T03:25:26.617Z,8.90
2023-02-05T03:27:58.039Z,9.30
2023-02-05T03:30:36.562Z,9.90
2023-02-05T03:33:18.978Z,9.60
2023-02-05T03:35:57.453Z,9.37
2023-02-05T03:38:40.959Z,10.53
2023-02-05T03:41:18.764Z,9.87
2023-02-05T03:43:55.267Z,11.07
2023-02-05T03:46:34.353Z,11.00
2023-02-05T03:49:15.857Z,13.30
2023-02-05T03:51:54.179Z,12.57
2023-02-05T03:54:32.185Z,14.33
2023-02-05T03:57:08.789Z,13.70
2023-02-05T03:59:40.450Z,14.13
2023-02-05T04:02:13.809Z,14.90
2023-02-05T04:04:43.628Z,16.03
2023-02-05T04:07:13.764Z,17.00
2023-02-05T04:09:43.500Z,15.57
2023-02-05T04:12:13.494Z,15.77
2023-02-05T04:14:43.299Z,15.93
2023-02-05T04:17:16.158Z,15.93
2023-02-05T04:19:46.115Z,15.93
2023-02-05T04:22:15.951Z,14.00
2023-02-05T04:24:45.937Z,14.97
2023-02-05T04:27:15.782Z,15.40
2023-02-05T04:29:48.340Z,13.03
2023-02-05T04:32:20.637Z,14.70
2023-02-05T04:34:50.405Z,13.73
2023-02-05T04:37:20.268Z,16.13
2023-02-05T04:39:50.690Z,16.07
2023-02-05T04:42:20.701Z,16.57
2023-02-05T04:44:50.433Z,16.03
2023-02-05T04:47:23.435Z,16.87
2023-02-05T04:49:53.253Z,16.07
2023-02-05T04:52:22.955Z,17.10
2023-02-05T04:54:52.833Z,16.73
2023-02-05T04:57:24.370Z,17.23
2023-02-05T04:59:54.292Z,17.60
2023-02-05T05:02:26.738Z,18.30
2023-02-05T05:04:56.469Z,16.87
2023-02-05T05:07:26.538Z,18.60
2023-02-05T05:09:56.379Z,19.03
2023-02-05T05:12:26.119Z,17.93
2023-02-05T05:14:55.933Z,19.33
2023-02-05T05:17:28.431Z,17.60
2023-02-05T05:19:58.841Z,18.73
2023-02-05T05:22:28.665Z,17.30
2023-02-05T05:24:58.791Z,17.47
2023-02-05T05:27:28.634Z,18.67
2023-02-05T05:29:58.427Z,18.90
2023-02-05T05:32:30.807Z,16.30
2023-02-05T05:35:00.639Z,20.97
2023-02-05T05:37:30.532Z,20.27
2023-02-05T05:40:12.695Z,20.77
2023-02-05T05:42:54.961Z,21.00
2023-02-05T05:45:24.761Z,20.13
2023-02-05T05:47:57.802Z,20.57
2023-02-05T05:50:27.505Z,15.93
2023-02-05T05:52:57.278Z,18.17
2023-02-05T05:55:27.039Z,19.23
2023-02-05T05:57:56.780Z,19.60
2023-02-05T06:00:29.442Z,20.97
2023-02-05T06:03:01.728Z,20.10
2023-02-05T06:05:32.088Z,21.00
2023-02-05T06:08:02.270Z,20.93
2023-02-05T06:10:33.105Z,19.87
2023-02-05T06:13:03.399Z,21.43
2023-02-05T06:15:33.677Z,20.40
2023-02-05T06:18:06.475Z,20.27
2023-02-05T06:20:36.221Z,20.67
2023-02-05T06:23:05.918Z,18.30
2023-02-05T06:25:36.051Z,21.63
2023-02-05T06:28:06.081Z,23.20
2023-02-05T06:30:36.035Z,22.70
2023-02-05T06:33:08.404Z,22.03
2023-02-05T06:35:38.416Z,21.90
2023-02-05T06:38:08.101Z,22.30
2023-02-05T06:40:38.222Z,21.73
2023-02-05T06:43:08.611Z,20.87
2023-02-05T06:45:38.533Z,19.93
2023-02-05T06:48:11.032Z,19.33
2023-02-05T06:50:40.829Z,20.20
2023-02-05T06:53:11.918Z,17.13
2023-02-05T06:55:42.304Z,18.30
2023-02-05T06:58:12.468Z,16.30
2023-02-05T07:00:43.105Z,14.50
2023-02-05T07:03:16.045Z,14.17
2023-02-05T07:05:45.959Z,13.53
2023-02-05T07:08:15.820Z,16.50
2023-02-05T07:10:45.591Z,12.93
2023-02-05T07:13:18.282Z,15.23
2023-02-05T07:15:48.050Z,15.10
2023-02-05T07:18:20.540Z,13.90
2023-02-05T07:20:52.071Z,14.77
2023-02-05T07:23:21.847Z,14.67
2023-02-05T07:25:53.632Z,14.27
2023-02-05T07:28:23.431Z,13.43
2023-02-05T07:30:53.395Z,13.00
2023-02-05T07:33:25.754Z,13.17
2023-02-05T07:35:55.705Z,11.97
2023-02-05T07:38:25.515Z,11.83
2023-02-05T07:40:55.364Z,11.93
2023-02-05T07:43:25.192Z,12.43
2023-02-05T07:45:59.533Z,11.33
2023-02-05T07:48:31.977Z,11.50
2023-02-05T07:51:02.066Z,12.80
2023-02-05T07:53:32.231Z,10.87
2023-02-05T07:56:05.630Z,11.07
2023-02-05T07:58:35.424Z,10.40
2023-02-05T08:01:05.613Z,8.63
2023-02-05T08:03:38.455Z,9.90
2023-02-05T08:06:09.369Z,11.07
2023-02-05T08:08:39.312Z,10.57
2023-02-05T08:11:09.841Z,9.50
2023-02-05T08:13:39.751Z,7.53
2023-02-05T08:16:11.586Z,6.63
2023-02-05T08:18:44.408Z,7.90
2023-02-05T08:21:14.129Z,7.20
2023-02-05T08:23:43.947Z,5.33
2023-02-05T08:26:15.088Z,2.97
2023-02-05T08:28:46.098Z,3.00
2023-02-05T08:31:18.122Z,3.03
2023-02-05T08:33:50.911Z,1.63
2023-02-05T08:36:20.671Z,1.23
2023-02-05T08:38:52.149Z,1.77
2023-02-05T08:41:21.960Z,0.80
2023-02-05T08:43:53.326Z,1.00
2023-02-05T08:46:31.550Z,0.60
2023-02-05T08:49:09.720Z,0.50
2023-02-05T08:51:39.572Z,0.60
2023-02-05T08:54:13.507Z,0.40
2023-02-05T08:56:43.828Z,0.60
2023-02-05T08:59:14.861Z,0.60
2023-02-05T09:01:45.213Z,0.80
2023-02-05T09:04:19.788Z,0.40
2023-02-05T09:06:50.047Z,0.37
2023-02-05T09:09:20.144Z,0.60
2023-02-05T09:11:50.365Z,0.27
2023-02-05T09:14:20.317Z,0.50
2023-02-05T09:16:50.100Z,0.27
2023-02-05T09:19:22.483Z,0.60
2023-02-05T09:21:54.147Z,0.40
2023-02-05T09:24:24.427Z,0.80
2023-02-05T09:26:54.473Z,0.40
2023-02-05T09:29:24.237Z,0.40
2023-02-05T09:31:54.099Z,0.80
2023-02-05T09:34:26.455Z,0.73
2023-02-05T09:36:56.178Z,0.60
2023-02-05T09:40:12.041Z,0.63
2023-02-05T09:42:23.628Z,1.00
2023-02-05T09:45:06.222Z,2.17
2023-02-05T09:47:41.582Z,1.50
2023-02-05T09:50:25.799Z,1.67
2023-02-05T09:52:59.354Z,1.63
2023-02-05T09:55:32.591Z,1.50
2023-02-05T09:58:08.816Z,2.43
2023-02-05T10:00:48.093Z,1.57
2023-02-05T10:03:27.314Z,1.90
2023-02-05T10:06:15.122Z,1.90
2023-02-05T10:08:55.664Z,2.77
2023-02-05T10:11:34.330Z,2.60
2023-02-05T10:14:19.898Z,2.03
2023-02-05T10:17:12.225Z,2.00
2023-02-05T10:20:04.109Z,1.80
2023-02-05T10:22:49.283Z,1.63
2023-02-05T10:25:50.454Z,1.30
2023-02-05T10:28:36.789Z,1.17
2023-02-05T10:31:14.844Z,1.40
2023-02-05T10:33:49.747Z,1.17
2023-02-05T10:36:24.587Z,0.87
2023-02-05T10:38:59.909Z,0.83
2023-02-05T10:41:33.785Z,1.00
2023-02-05T10:44:13.452Z,0.87
2023-02-05T10:46:51.711Z,1.20
2023-02-05T10:49:27.304Z,1.37
2023-02-05T10:51:57.069Z,0.80
2023-02-05T10:54:31.962Z,1.40
2023-02-05T10:57:02.564Z,0.73
2023-02-05T10:59:35.292Z,1.47
2023-02-05T11:02:07.856Z,1.30
2023-02-05T11:04:43.203Z,1.57
2023-02-05T11:07:16.568Z,1.07
2023-02-05T11:09:51.504Z,1.47
2023-02-05T11:12:32.708Z,1.13
2023-02-05T11:15:04.505Z,1.03
2023-02-05T11:17:37.790Z,0.77
2023-02-05T11:20:11.216Z,1.30
2023-02-05T11:22:42.638Z,1.53
2023-02-05T11:25:20.417Z,1.07
2023-02-05T11:27:56.015Z,1.00
2023-02-05T11:30:50.372Z,1.70
2023-02-05T11:33:33.670Z,1.20
2023-02-05T11:36:06.738Z,1.13
2023-02-05T11:38:44.805Z,1.30
2023-02-05T11:41:29.705Z,1.23
2023-02-05T11:44:01.543Z,1.90
2023-02-05T11:46:37.733Z,1.00
2023-02-05T11:49:07.924Z,0.80
2023-02-05T11:51:47.377Z,1.37
2023-02-05T11:54:26.213Z,0.87
2023-02-05T11:57:32.819Z,1.20
2023-02-05T12:00:04.868Z,1.30
2023-02-05T12:02:37.885Z,1.63
2023-02-05T12:05:20.276Z,1.30
2023-02-05T12:07:55.038Z,0.90
2023-02-05T12:10:34.451Z,1.03
2023-02-05T12:13:20.083Z,0.70
2023-02-05T12:16:00.070Z,1.27
2023-02-05T12:18:41.418Z,1.23
2023-02-05T12:21:21.943Z,0.90
2023-02-05T12:24:27.275Z,1.43
2023-02-05T12:27:09.718Z,1.23
2023-02-05T12:30:00.622Z,1.13
2023-02-05T12:32:43.159Z,1.23
2023-02-05T12:35:35.263Z,1.30
2023-02-05T12:38:21.171Z,0.80
2023-02-05T12:41:08.602Z,0.77
2023-02-05T12:43:41.968Z,1.00
2023-02-05T12:46:28.873Z,0.60
2023-02-05T12:49:16.839Z,1.27
2023-02-05T12:52:06.523Z,0.70
2023-02-05T12:54:51.482Z,1.00
2023-02-05T12:57:25.296Z,0.60
2023-02-05T13:00:00.369Z,1.20
2023-02-05T13:02:39.846Z,0.90
2023-02-05T13:05:22.182Z,0.90
2023-02-05T13:07:57.968Z,0.57
2023-02-05T13:10:32.323Z,1.20
2023-02-05T13:13:05.916Z,0.80
2023-02-05T13:15:42.318Z,1.30
2023-02-05T13:18:20.917Z,0.80
2023-02-05T13:21:07.561Z,1.00
2023-02-05T13:23:53.310Z,1.10
2023-02-05T13:26:43.833Z,1.00
2023-02-05T13:29:16.932Z,0.43
2023-02-05T13:31:50.977Z,0.87
2023-02-05T13:34:23.760Z,0.80
2023-02-05T13:37:28.459Z,0.90
2023-02-05T13:40:29.108Z,0.93
2023-02-05T13:43:34.638Z,1.23
2023-02-05T13:46:35.951Z,1.10
2023-02-05T13:49:38.399Z,1.53
2023-02-05T13:52:25.333Z,1.03
2023-02-05T13:55:24.034Z,1.10
2023-02-05T13:58:12.947Z,1.27
2023-02-05T14:00:46.781Z,1.20
2023-02-05T14:03:30.955Z,0.93
2023-02-05T14:06:01.259Z,1.00
2023-02-05T14:08:39.912Z,1.17
2023-02-05T14:11:10.437Z,0.80
2023-02-05T14:13:40.252Z,0.97
2023-02-05T14:16:40.009Z,0.70
2023-02-05T14:19:22.176Z,0.40
2023-02-05T14:22:04.734Z,1.10
2023-02-05T14:24:49.754Z,1.10
2023-02-05T14:27:45.012Z,1.10
2023-02-05T14:30:44.985Z,1.10
2023-02-05T14:33:40.190Z,1.77
2023-02-05T14:36:45.374Z,1.10
2023-02-05T14:39:32.797Z,1.50
2023-02-05T14:42:08.062Z,1.10
2023-02-05T14:44:42.377Z,1.27
2023-02-05T14:47:22.329Z,1.47
2023-02-05T14:49:53.321Z,1.60
2023-02-05T14:52:31.410Z,1.50
2023-02-05T14:55:04.625Z,2.00
2023-02-05T14:57:45.393Z,1.30
2023-02-05T15:00:31.610Z,1.13
2023-02-05T15:03:27.914Z,1.47
2023-02-05T15:06:06.289Z,1.83
2023-02-05T15:08:48.420Z,1.57
2023-02-05T15:11:27.294Z,1.00
2023-02-05T15:14:41.562Z,1.57
2023-02-05T15:17:41.460Z,2.03
2023-02-05T15:20:26.836Z,2.27
2023-02-05T15:23:05.232Z,1.63
2023-02-05T15:25:41.429Z,1.77
2023-02-05T15:28:20.919Z,1.93
2023-02-05T15:30:59.060Z,1.20
2023-02-05T15:33:37.501Z,2.07
2023-02-05T15:36:21.631Z,1.80
2023-02-05T15:39:02.983Z,2.23
2023-02-05T15:41:36.200Z,2.33
2023-02-05T15:44:06.703Z,2.00
2023-02-05T15:46:37.401Z,2.20
2023-02-05T15:49:09.049Z,2.00
2023-02-05T15:51:42.313Z,1.80
2023-02-05T15:54:12.177Z,2.50
2023-02-05T15:56:44.236Z,2.30
2023-02-05T15:59:20.178Z,3.03
2023-02-05T16:01:53.423Z,1.90
2023-02-05T16:04:30.931Z,1.83
2023-02-05T16:07:04.696Z,2.20
2023-02-05T16:09:39.338Z,1.40
2023-02-05T16:12:16.216Z,2.70
2023-02-05T16:14:48.300Z,2.73
2023-02-05T16:17:22.696Z,2.50
2023-02-05T16:19:55.380Z,2.60
2023-02-05T16:22:40.734Z,2.17
2023-02-05T16:25:32.174Z,1.77
2023-02-05T16:28:03.851Z,2.70
2023-02-05T16:30:40.440Z,2.33
2023-02-05T16:33:16.926Z,2.40
2023-02-05T16:35:50.507Z,2.20
2023-02-05T16:38:24.828Z,2.10
2023-02-05T16:40:57.571Z,1.87
2023-02-05T16:43:34.516Z,1.40
2023-02-05T16:46:25.804Z,2.00
2023-02-05T16:48:59.036Z,1.87
2023-02-05T16:51:56.728Z,1.80
2023-02-05T16:54:38.888Z,1.87
2023-02-05T16:57:14.373Z,2.17
2023-02-05T16:59:54.260Z,1.97
2023-02-05T17:02:43.810Z,1.57
2023-02-05T17:05:27.850Z,2.03
2023-02-05T17:07:59.068Z,2.17
2023-02-05T17:10:32.996Z,1.80
2023-02-05T17:13:06.152Z,2.03
2023-02-05T17:15:40.384Z,1.67
2023-02-05T17:18:28.200Z,1.53
2023-02-05T17:21:31.992Z,2.33
2023-02-05T17:24:05.196Z,1.80
2023-02-05T17:26:43.154Z,2.00
2023-02-05T17:29:18.898Z,2.17
2023-02-05T17:31:48.780Z,2.07
2023-02-05T17:34:18.855Z,2.20
2023-02-05T17:36:48.667Z,2.57
2023-02-05T17:39:18.780Z,2.33
2023-02-05T17:42:11.002Z,1.80
2023-02-05T17:44:40.805Z,2.07
2023-02-05T17:47:13.161Z,2.03
2023-02-05T17:49:43.400Z,2.53
2023-02-05T17:52:15.601Z,2.80
2023-02-05T17:54:46.579Z,2.03
2023-02-05T17:57:22.437Z,2.30
2023-02-05T17:59:53.261Z,2.07
2023-02-05T18:02:23.357Z,2.73
2023-02-05T18:04:53.281Z,1.87
2023-02-05T18:07:28.344Z,1.63
2023-02-05T18:09:58.731Z,2.90
2023-02-05T18:12:31.418Z,2.53
2023-02-05T18:15:01.626Z,1.60
2023-02-05T18:17:31.358Z,3.13
2023-02-05T18:20:01.321Z,3.43
2023-02-05T18:22:31.269Z,2.20
2023-02-05T18:25:01.012Z,2.40
2023-02-05T18:27:33.416Z,3.27
2023-02-05T18:30:03.320Z,3.00
2023-02-05T18:32:33.153Z,2.63
2023-02-05T18:35:03.276Z,2.57
2023-02-05T18:37:33.090Z,2.20
2023-02-05T18:40:03.175Z,3.10
2023-02-05T18:42:35.984Z,2.43
2023-02-05T18:45:07.534Z,2.93
2023-02-05T18:47:37.382Z,2.47
2023-02-05T18:50:10.319Z,2.83
2023-02-05T18:52:40.369Z,2.50
2023-02-05T18:55:12.534Z,3.43
2023-02-05T18:57:45.022Z,3.27
2023-02-05T19:00:16.391Z,3.00
2023-02-05T19:02:46.645Z,2.70
2023-02-05T19:05:16.874Z,2.57
2023-02-05T19:07:51.238Z,2.10
2023-02-05T19:10:21.418Z,2.90
2023-02-05T19:12:54.148Z,3.17
2023-02-05T19:15:24.501Z,2.50
2023-02-05T19:17:54.470Z,3.43
2023-02-05T19:20:24.315Z,2.80
2023-02-05T19:22:55.466Z,2.47
2023-02-05T19:25:25.980Z,2.47
2023-02-05T19:27:58.602Z,2.90
2023-02-05T19:30:28.507Z,2.77
2023-02-05T19:32:58.484Z,2.67
2023-02-05T19:35:28.368Z,3.80
2023-02-05T19:37:58.531Z,2.70
2023-02-05T19:40:28.270Z,2.33
2023-02-05T19:43:01.043Z,2.57
2023-02-05T19:45:30.953Z,3.13
2023-02-05T19:48:01.210Z,2.43
2023-02-05T19:50:31.097Z,2.83
2023-02-05T19:53:01.100Z,2.43
2023-02-05T19:55:31.634Z,2.63
2023-02-05T19:58:04.591Z,2.50
2023-02-05T20:00:34.662Z,3.03
2023-02-05T20:03:04.679Z,2.30
2023-02-05T20:05:34.512Z,3.03
2023-02-05T20:08:04.284Z,3.47
2023-02-05T20:10:34.338Z,3.40
2023-02-05T20:13:07.572Z,2.30
2023-02-05T20:15:39.793Z,3.27
2023-02-05T20:18:09.589Z,3.00
2023-02-05T20:20:43.234Z,2.37
2023-02-05T20:23:12.997Z,2.93
2023-02-05T20:25:42.917Z,3.60
2023-02-05T20:28:15.746Z,2.80
2023-02-05T20:30:58.208Z,2.63
2023-02-05T20:33:28.107Z,2.93
2023-02-05T20:35:57.904Z,2.80
2023-02-05T20:38:27.822Z,3.23
2023-02-05T20:40:57.610Z,3.33
2023-02-05T20:43:32.809Z,2.97
2023-02-05T20:46:06.110Z,3.17
2023-02-05T20:48:36.275Z,2.93
2023-02-05T20:51:10.751Z,3.60
2023-02-05T20:53:41.540Z,3.73
2023-02-05T20:56:13.999Z,3.83
2023-02-05T20:58:46.783Z,3.00
2023-02-05T21:01:19.614Z,3.37
2023-02-05T21:03:51.321Z,3.30
2023-02-05T21:06:22.167Z,3.13
2023-02-05T21:08:54.287Z,3.17
2023-02-05T21:11:26.323Z,2.97
2023-02-05T21:13:59.434Z,2.80
2023-02-05T21:16:30.815Z,3.20
2023-02-05T21:19:00.975Z,2.73
2023-02-05T21:21:32.522Z,3.47
2023-02-05T21:24:03.815Z,2.93
2023-02-05T21:26:35.869Z,2.40
2023-02-05T21:29:10.491Z,2.90
2023-02-05T21:31:44.975Z,2.80
2023-02-05T21:34:17.770Z,2.27
2023-02-05T21:36:48.646Z,2.27
2023-02-05T21:39:20.449Z,2.63
2023-02-05T21:41:50.970Z,3.20
2023-02-05T21:44:23.597Z,2.97
2023-02-05T21:46:53.775Z,2.73
2023-02-05T21:49:23.665Z,2.83
2023-02-05T21:51:53.634Z,2.73
2023-02-05T21:54:25.850Z,2.77
2023-02-05T21:56:55.992Z,2.17
2023-02-05T21:59:28.492Z,2.70
2023-02-05T22:01:58.631Z,2.67
2023-02-05T22:04:29.691Z,2.40
2023-02-05T22:06:59.477Z,2.73
2023-02-05T22:09:29.309Z,3.10
2023-02-05T22:12:03.754Z,2.13
2023-02-05T22:14:36.719Z,2.30
2023-02-05T22:17:06.845Z,2.70
2023-02-05T22:19:36.580Z,2.73
2023-02-05T22:22:06.681Z,2.57
2023-02-05T22:24:36.680Z,2.23
2023-02-05T22:27:06.811Z,3.20
2023-02-05T22:29:39.385Z,3.20
2023-02-05T22:32:09.234Z,2.83
2023-02-05T22:34:39.237Z,2.33
2023-02-05T22:37:09.407Z,2.87
2023-02-05T22:39:39.163Z,2.17
2023-02-05T22:42:09.278Z,2.50
2023-02-05T22:44:42.269Z,2.80
2023-02-05T22:47:12.224Z,2.90
2023-02-05T22:49:42.233Z,2.40
2023-02-05T22:52:12.619Z,2.90
2023-02-05T22:54:42.665Z,2.70
2023-02-05T22:57:12.536Z,2.50
2023-02-05T22:59:45.574Z,2.97
2023-02-05T23:02:15.594Z,2.87
2023-02-05T23:04:45.509Z,3.53
2023-02-05T23:07:15.379Z,3.00
2023-02-05T23:09:45.176Z,3.70
2023-02-05T23:12:15.314Z,3.57
2023-02-05T23:14:47.988Z,3.30
2023-02-05T23:17:17.803Z,4.37
2023-02-05T23:19:47.665Z,3.27
2023-02-05T23:22:17.492Z,3.40
2023-02-05T23:24:47.883Z,3.27
2023-02-05T23:27:17.654Z,2.73
2023-02-05T23:29:50.236Z,2.90
2023-02-05T23:32:19.988Z,3.30
2023-02-05T23:34:49.732Z,3.27
2023-02-05T23:37:19.556Z,3.00
2023-02-05T23:39:49.544Z,3.20
2023-02-05T23:42:19.375Z,3.27
2023-02-05T23:44:51.795Z,2.90
2023-02-05T23:47:21.639Z,2.83
2023-02-05T23:49:53.377Z,2.90
2023-02-05T23:52:23.210Z,4.07
2023-02-05T23:54:53.025Z,3.80
2023-02-05T23:57:22.945Z,4.33
2023-02-05T23:59:55.393Z,3.90
